Flight Track Log - Related Links

Times and Time Zones

All times are in EDT time to prevent confusion due to time zone crossing. See the USC105 flight status page for this flight to view local times or setup timezone preferences in your user account.

Time Position Orientation Groundspeed Altitude Reporting Facility
EDT Latitude Longitude Course Direction KTS MPH feet Rate Location/Type
Thu 12:11:22 AM 42.2439 -83.5844 268° West 131 151 1,600  Level Cleveland Center
Thu 12:12:23 AM 42.2425 -83.6378 268° West 136 157 2,400 793 Climbing Cleveland Center
Thu 12:13:23 AM 42.2389 -83.6936 265° West 150 173 3,200 783 Climbing Cleveland Center
Thu 12:14:18 AM 42.2375 -83.7439 268° West 152 175 3,900 843 Climbing Cleveland Center
Thu 12:15:24 AM 42.2317 -83.8056 263° West 150 173 4,900 733 Climbing Cleveland Center
Thu 12:17:10 AM 42.2303 -83.9094 269° West 155 178 6,000 395 Climbing Chicago Center
Thu 12:18:11 AM 42.2300 -83.9800 270° West 171 197 6,000  Level Chicago Center
Thu 12:19:12 AM 42.2244 -84.0581 265° West 195 224 6,000  Level Chicago Center
Thu 12:20:13 AM 42.2186 -84.1317 264° West 198 228 6,000  Level Chicago Center
Thu 12:21:14 AM 42.2147 -84.2061 266° West 200 230 6,000  Level Chicago Center
Thu 12:22:16 AM 42.2092 -84.2778 264° West 195 224 6,000  Level Chicago Center
Thu 12:23:17 AM 42.2056 -84.3528 266° West 199 229 6,000  Level Chicago Center
Thu 12:24:18 AM 42.2014 -84.4258 266° West 197 227 6,000  Level Chicago Center
Thu 12:25:19 AM 42.1964 -84.4983 265° West 195 224 6,000  Level Chicago Center
Thu 12:26:20 AM 42.1925 -84.5681 266° West 196 226 6,000  Level Chicago Center
Thu 12:27:21 AM 42.1878 -84.6419 265° West 197 227 6,000  Level Chicago Center
Thu 12:28:22 AM 42.1828 -84.7300 266° West 198 228 6,000  Level Chicago Center
Thu 12:29:23 AM 42.1778 -84.8019 265° West 195 224 6,000  Level Chicago Center
Thu 12:30:24 AM 42.1736 -84.8731 266° West 194 223 6,000  Level Chicago Center
Thu 12:31:25 AM 42.1681 -84.9433 264° West 190 219 6,000  Level Chicago Center
Thu 12:32:26 AM 42.1636 -85.0158 265° West 193 222 6,000  Level Chicago Center
Thu 12:33:27 AM 42.1594 -85.0889 266° West 195 224 6,000  Level Chicago Center
Thu 12:34:28 AM 42.1544 -85.1631 265° West 199 229 6,000  Level Chicago Center
Thu 12:35:29 AM 42.1497 -85.2378 265° West 201 231 6,000  Level Chicago Center
Thu 12:36:30 AM 42.1444 -85.3144 265° West 205 236 6,000  Level Chicago Center
Thu 12:37:31 AM 42.1397 -85.3897 265° West 205 236 6,000  Level Chicago Center
Thu 12:38:32 AM 42.1350 -85.4642 265° West 202 232 6,000  Level Chicago Center
Thu 12:39:33 AM 42.1281 -85.5525 264° West 200 230 6,000  Level Chicago Center
Thu 12:40:33 AM 42.1228 -85.6272 265° West 200 230 6,000  Level Chicago Center
Thu 12:41:34 AM 42.1172 -85.7017 264° West 201 231 6,000  Level Chicago Center
Thu 12:42:35 AM 42.1119 -85.7769 265° West 202 232 6,000  Level Chicago Center
Thu 12:43:36 AM 42.1061 -85.8519 264° West 202 232 6,000  Level Chicago Center
Thu 12:44:37 AM 42.1014 -85.9267 265° West 201 231 6,000  Level Chicago Center
Thu 12:45:38 AM 42.0956 -86.0014 264° West 201 231 6,000  Level Chicago Center
Thu 12:46:39 AM 42.0906 -86.0756 265° West 200 230 6,000  Level Chicago Center
Thu 12:47:39 AM 42.0850 -86.1519 264° West 204 235 6,000  Level Chicago Center
Thu 12:48:40 AM 42.0781 -86.2283 263° West 207 238 6,000  Level Chicago Center
Thu 12:49:41 AM 42.0733 -86.3039 265° West 204 235 6,000  Level Chicago Center
Thu 12:50:42 AM 42.0664 -86.3792 263° West 203 234 6,000  Level Chicago Center
Thu 12:51:42 AM 42.0603 -86.4692 265° West 202 232 6,000  Level Chicago Center
Thu 12:52:43 AM 42.0542 -86.5439 264° West 202 232 6,000  Level Chicago Center
Thu 12:53:44 AM 42.0492 -86.6200 265° West 203 234 6,000  Level Chicago Center
Thu 12:54:45 AM 42.0428 -86.6933 263° West 199 229 6,000  Level Chicago Center
Thu 12:55:45 AM 42.0378 -86.7697 265° West 203 234 6,000  Level Chicago Center
Thu 12:56:46 AM 42.0317 -86.8411 263° West 202 232 6,000  Level Chicago Center
Thu 12:57:47 AM 42.0272 -86.9169 266° West 204 235 6,000  Level Chicago Center
Thu 12:58:48 AM 42.0197 -86.9908 262° West 202 232 6,000 -50 Level Chicago Center
Thu 12:59:48 AM 42.0128 -87.0647 263° West 201 231 5,900 -50 Descending Chicago Center
Thu 01:00:49 AM 42.0075 -87.1383 265° West 200 230 5,900 50 Level Chicago Center
Thu 01:01:49 AM 42.0000 -87.2275 264° West 202 232 6,000 50 Climbing Chicago Center
Thu 01:02:50 AM 41.9944 -87.3006 264° West 198 228 6,000  Level Chicago Center
Thu 01:03:50 AM 41.9861 -87.3725 261° West 196 226 6,000  Level Chicago Center
Thu 01:04:51 AM 41.9661 -87.4400 248° West 201 231 6,000  Level Chicago Center
Thu 01:05:55 AM 41.9386 -87.5042 240° Southwest 199 229 6,000  Level Chicago Center
Thu 01:06:55 AM 41.8906 -87.5400 209° Southwest 205 236 6,000  Level Chicago Center
Thu 01:07:56 AM 41.8408 -87.5694 204° Southwest 198 228 6,000  Level Chicago Center
Thu 01:08:56 AM 41.7900 -87.5986 203° Southwest 198 228 6,000  Level Chicago Center
Thu 01:09:57 AM 41.7761 -87.6567 252° West 181 208 6,000  Level Chicago Center
Thu 01:10:57 AM 41.7758 -87.7214 270° West 178 205 6,000  Level Chicago Center
Thu 01:11:58 AM 41.7772 -87.7983 271° West 173 199 6,000 -50 Level Chicago Center
Thu 01:12:58 AM 41.7753 -87.8614 268° West 172 198 5,900 -298 Descending Chicago Center
Thu 01:13:59 AM 41.7828 -87.9258 279° West 176 203 5,400 -446 Descending Chicago Center
Thu 01:14:59 AM 41.7878 -87.9925 276° West 181 208 5,000 -496 Descending Chicago Center
Thu 01:16:00 AM 41.7961 -88.0561 280° West 179 206 4,400 -595 Descending Chicago Center
Thu 01:17:00 AM 41.8231 -88.1097 304° West 178 205 3,800 -645 Descending Chicago Center
Thu 01:18:01 AM 41.8481 -88.1628 302° West 172 198 3,100 -843 Descending Chicago Center
Thu 01:19:01 AM 41.8636 -88.2242 289° West 172 198 2,100 -1,091 Descending Chicago Center
Thu 01:20:02 AM 41.8892 -88.2567 317° Northwest 150 173 900 -1,180 Descending Chicago Center
Thu 01:22:00 AM 41.9000 -88.2333 270° West  Level FlightAware Approximate

Login

Don't have an account? Register now (free) for customized features, flight alerts, and more!